sensor_id;sensor_type;location;lat;lon;timestamp;P1;durP1;ratioP1;P2;durP2;ratioP2
72437;SDS011;60444;43.534;-5.674;2023-03-04T00:02:08;23.13;;;12.17;;
72437;SDS011;60444;43.534;-5.674;2023-03-04T00:04:33;23.83;;;12.80;;
72437;SDS011;60444;43.534;-5.674;2023-03-04T00:06:59;26.03;;;13.43;;
72437;SDS011;60444;43.534;-5.674;2023-03-04T00:09:24;20.55;;;11.68;;
72437;SDS011;60444;43.534;-5.674;2023-03-04T00:11:50;20.13;;;10.67;;
72437;SDS011;60444;43.534;-5.674;2023-03-04T00:14:16;24.27;;;12.90;;
72437;SDS011;60444;43.534;-5.674;2023-03-04T00:16:41;25.90;;;12.93;;
72437;SDS011;60444;43.534;-5.674;2023-03-04T00:19:07;28.07;;;14.00;;
72437;SDS011;60444;43.534;-5.674;2023-03-04T00:21:32;24.33;;;12.80;;
72437;SDS011;60444;43.534;-5.674;2023-03-04T00:23:58;23.30;;;12.43;;
72437;SDS011;60444;43.534;-5.674;2023-03-04T00:26:23;26.77;;;13.07;;
72437;SDS011;60444;43.534;-5.674;2023-03-04T00:28:49;26.23;;;13.33;;
72437;SDS011;60444;43.534;-5.674;2023-03-04T00:31:14;21.88;;;11.60;;
72437;SDS011;60444;43.534;-5.674;2023-03-04T00:33:40;26.10;;;12.07;;
72437;SDS011;60444;43.534;-5.674;2023-03-04T00:36:07;22.30;;;11.95;;
72437;SDS011;60444;43.534;-5.674;2023-03-04T00:38:33;19.00;;;10.60;;
72437;SDS011;60444;43.534;-5.674;2023-03-04T00:40:58;19.20;;;10.30;;
72437;SDS011;60444;43.534;-5.674;2023-03-04T00:43:24;20.90;;;10.93;;
72437;SDS011;60444;43.534;-5.674;2023-03-04T00:45:49;21.77;;;11.17;;
72437;SDS011;60444;43.534;-5.674;2023-03-04T00:48:15;19.37;;;11.60;;
72437;SDS011;60444;43.534;-5.674;2023-03-04T00:50:40;22.60;;;12.57;;
72437;SDS011;60444;43.534;-5.674;2023-03-04T00:53:06;23.03;;;11.80;;
72437;SDS011;60444;43.534;-5.674;2023-03-04T00:55:32;18.65;;;10.35;;
72437;SDS011;60444;43.534;-5.674;2023-03-04T00:57:57;21.63;;;11.63;;
72437;SDS011;60444;43.534;-5.674;2023-03-04T01:00:23;25.67;;;11.73;;
72437;SDS011;60444;43.534;-5.674;2023-03-04T01:02:49;22.35;;;11.40;;
72437;SDS011;60444;43.534;-5.674;2023-03-04T01:05:14;21.03;;;10.47;;
72437;SDS011;60444;43.534;-5.674;2023-03-04T01:07:40;20.02;;;10.45;;
72437;SDS011;60444;43.534;-5.674;2023-03-04T01:10:06;23.47;;;11.93;;
72437;SDS011;60444;43.534;-5.674;2023-03-04T01:12:33;23.77;;;10.48;;
72437;SDS011;60444;43.534;-5.674;2023-03-04T01:14:59;18.20;;;9.23;;
72437;SDS011;60444;43.534;-5.674;2023-03-04T01:17:24;20.60;;;10.73;;
72437;SDS011;60444;43.534;-5.674;2023-03-04T01:19:50;16.37;;;8.10;;
72437;SDS011;60444;43.534;-5.674;2023-03-04T01:22:15;15.20;;;8.70;;
72437;SDS011;60444;43.534;-5.674;2023-03-04T01:24:43;18.52;;;9.27;;
72437;SDS011;60444;43.534;-5.674;2023-03-04T01:27:09;20.55;;;8.80;;
72437;SDS011;60444;43.534;-5.674;2023-03-04T01:29:34;20.40;;;9.67;;
72437;SDS011;60444;43.534;-5.674;2023-03-04T01:32:00;19.20;;;9.43;;
72437;SDS011;60444;43.534;-5.674;2023-03-04T01:34:25;18.60;;;9.07;;
72437;SDS011;60444;43.534;-5.674;2023-03-04T01:36:51;20.93;;;9.70;;
72437;SDS011;60444;43.534;-5.674;2023-03-04T01:39:16;16.33;;;8.07;;
72437;SDS011;60444;43.534;-5.674;2023-03-04T01:41:42;25.92;;;9.95;;
72437;SDS011;60444;43.534;-5.674;2023-03-04T01:44:08;24.13;;;10.43;;
72437;SDS011;60444;43.534;-5.674;2023-03-04T01:46:34;27.92;;;12.20;;
72437;SDS011;60444;43.534;-5.674;2023-03-04T01:48:59;29.37;;;10.63;;
72437;SDS011;60444;43.534;-5.674;2023-03-04T01:51:25;39.37;;;11.83;;
72437;SDS011;60444;43.534;-5.674;2023-03-04T01:53:50;32.47;;;10.60;;
72437;SDS011;60444;43.534;-5.674;2023-03-04T01:56:37;37.88;;;11.73;;
72437;SDS011;60444;43.534;-5.674;2023-03-04T02:01:35;44.27;;;12.00;;
72437;SDS011;60444;43.534;-5.674;2023-03-04T02:04:01;38.17;;;12.95;;
72437;SDS011;60444;43.534;-5.674;2023-03-04T02:06:27;41.55;;;12.50;;
72437;SDS011;60444;43.534;-5.674;2023-03-04T02:08:53;39.17;;;12.30;;
72437;SDS011;60444;43.534;-5.674;2023-03-04T02:11:18;35.50;;;11.60;;
72437;SDS011;60444;43.534;-5.674;2023-03-04T02:13:44;37.33;;;11.32;;
72437;SDS011;60444;43.534;-5.674;2023-03-04T02:16:09;45.40;;;12.60;;
72437;SDS011;60444;43.534;-5.674;2023-03-04T02:18:35;43.37;;;12.07;;
72437;SDS011;60444;43.534;-5.674;2023-03-04T02:21:14;51.42;;;14.70;;
72437;SDS011;60444;43.534;-5.674;2023-03-04T02:26:35;52.83;;;13.27;;
72437;SDS011;60444;43.534;-5.674;2023-03-04T02:29:01;38.47;;;11.60;;
72437;SDS011;60444;43.534;-5.674;2023-03-04T02:34:05;28.23;;;10.97;;
72437;SDS011;60444;43.534;-5.674;2023-03-04T02:36:36;40.03;;;13.05;;
72437;SDS011;60444;43.534;-5.674;2023-03-04T02:39:45;31.52;;;11.77;;
72437;SDS011;60444;43.534;-5.674;2023-03-04T02:41:53;28.33;;;11.23;;
72437;SDS011;60444;43.534;-5.674;2023-03-04T02:44:29;30.35;;;11.68;;
72437;SDS011;60444;43.534;-5.674;2023-03-04T02:46:58;32.77;;;10.10;;
72437;SDS011;60444;43.534;-5.674;2023-03-04T02:49:25;18.50;;;8.45;;
72437;SDS011;60444;43.534;-5.674;2023-03-04T02:51:57;22.25;;;9.55;;
72437;SDS011;60444;43.534;-5.674;2023-03-04T02:54:30;22.58;;;9.48;;
72437;SDS011;60444;43.534;-5.674;2023-03-04T02:56:58;18.33;;;9.20;;
72437;SDS011;60444;43.534;-5.674;2023-03-04T02:59:26;24.58;;;10.75;;
72437;SDS011;60444;43.534;-5.674;2023-03-04T03:01:52;24.20;;;8.80;;
72437;SDS011;60444;43.534;-5.674;2023-03-04T03:04:17;20.93;;;9.90;;
72437;SDS011;60444;43.534;-5.674;2023-03-04T03:06:44;22.63;;;9.60;;
72437;SDS011;60444;43.534;-5.674;2023-03-04T03:09:10;20.47;;;9.17;;
72437;SDS011;60444;43.534;-5.674;2023-03-04T03:11:35;15.70;;;7.75;;
72437;SDS011;60444;43.534;-5.674;2023-03-04T03:14:01;19.23;;;8.97;;
72437;SDS011;60444;43.534;-5.674;2023-03-04T03:16:27;18.88;;;10.07;;
72437;SDS011;60444;43.534;-5.674;2023-03-04T03:18:53;21.05;;;11.15;;
72437;SDS011;60444;43.534;-5.674;2023-03-04T03:21:19;22.17;;;10.67;;
72437;SDS011;60444;43.534;-5.674;2023-03-04T03:23:44;19.83;;;10.27;;
72437;SDS011;60444;43.534;-5.674;2023-03-04T03:26:10;16.35;;;8.90;;
72437;SDS011;60444;43.534;-5.674;2023-03-04T03:28:36;20.37;;;10.70;;
72437;SDS011;60444;43.534;-5.674;2023-03-04T03:31:01;21.50;;;11.70;;
72437;SDS011;60444;43.534;-5.674;2023-03-04T03:33:27;17.07;;;8.67;;
72437;SDS011;60444;43.534;-5.674;2023-03-04T03:35:52;19.73;;;10.73;;
72437;SDS011;60444;43.534;-5.674;2023-03-04T03:38:18;17.25;;;9.45;;
72437;SDS011;60444;43.534;-5.674;2023-03-04T03:40:44;16.50;;;8.30;;
72437;SDS011;60444;43.534;-5.674;2023-03-04T03:43:09;17.25;;;7.50;;
72437;SDS011;60444;43.534;-5.674;2023-03-04T03:45:35;16.20;;;8.70;;
72437;SDS011;60444;43.534;-5.674;2023-03-04T03:48:00;18.10;;;10.30;;
72437;SDS011;60444;43.534;-5.674;2023-03-04T03:50:26;19.92;;;10.15;;
72437;SDS011;60444;43.534;-5.674;2023-03-04T03:52:53;19.27;;;9.85;;
72437;SDS011;60444;43.534;-5.674;2023-03-04T03:55:19;16.43;;;8.47;;
72437;SDS011;60444;43.534;-5.674;2023-03-04T03:57:45;17.63;;;8.98;;
72437;SDS011;60444;43.534;-5.674;2023-03-04T04:00:10;18.13;;;8.97;;
72437;SDS011;60444;43.534;-5.674;2023-03-04T04:02:36;18.00;;;8.98;;
72437;SDS011;60444;43.534;-5.674;2023-03-04T04:05:02;19.63;;;9.70;;
72437;SDS011;60444;43.534;-5.674;2023-03-04T04:07:27;19.33;;;10.13;;
72437;SDS011;60444;43.534;-5.674;2023-03-04T04:09:53;19.67;;;10.10;;
72437;SDS011;60444;43.534;-5.674;2023-03-04T04:12:19;15.77;;;9.07;;
72437;SDS011;60444;43.534;-5.674;2023-03-04T04:14:44;17.23;;;9.43;;
72437;SDS011;60444;43.534;-5.674;2023-03-04T04:17:10;16.67;;;8.77;;
72437;SDS011;60444;43.534;-5.674;2023-03-04T04:19:37;19.42;;;9.70;;
72437;SDS011;60444;43.534;-5.674;2023-03-04T04:22:05;15.23;;;8.65;;
72437;SDS011;60444;43.534;-5.674;2023-03-04T04:24:32;14.80;;;7.40;;
72437;SDS011;60444;43.534;-5.674;2023-03-04T04:26:58;18.40;;;10.27;;
72437;SDS011;60444;43.534;-5.674;2023-03-04T04:29:23;16.13;;;8.97;;
72437;SDS011;60444;43.534;-5.674;2023-03-04T04:31:49;14.53;;;8.30;;
72437;SDS011;60444;43.534;-5.674;2023-03-04T04:34:14;16.50;;;8.47;;
72437;SDS011;60444;43.534;-5.674;2023-03-04T04:36:40;16.60;;;9.53;;
72437;SDS011;60444;43.534;-5.674;2023-03-04T04:39:05;19.23;;;9.53;;
72437;SDS011;60444;43.534;-5.674;2023-03-04T04:41:35;16.37;;;9.47;;
72437;SDS011;60444;43.534;-5.674;2023-03-04T04:44:02;17.25;;;8.65;;
72437;SDS011;60444;43.534;-5.674;2023-03-04T04:46:27;19.23;;;10.48;;
72437;SDS011;60444;43.534;-5.674;2023-03-04T04:48:53;18.73;;;9.50;;
72437;SDS011;60444;43.534;-5.674;2023-03-04T04:51:19;17.55;;;9.32;;
72437;SDS011;60444;43.534;-5.674;2023-03-04T04:53:45;15.50;;;8.27;;
72437;SDS011;60444;43.534;-5.674;2023-03-04T04:56:17;13.30;;;7.83;;
72437;SDS011;60444;43.534;-5.674;2023-03-04T04:58:45;19.50;;;9.85;;
72437;SDS011;60444;43.534;-5.674;2023-03-04T05:01:12;19.10;;;9.82;;
72437;SDS011;60444;43.534;-5.674;2023-03-04T05:03:38;20.02;;;9.38;;
72437;SDS011;60444;43.534;-5.674;2023-03-04T05:06:04;15.20;;;8.87;;
72437;SDS011;60444;43.534;-5.674;2023-03-04T05:08:32;18.17;;;8.20;;
72437;SDS011;60444;43.534;-5.674;2023-03-04T05:10:57;19.38;;;9.55;;
72437;SDS011;60444;43.534;-5.674;2023-03-04T05:13:23;17.83;;;9.45;;
72437;SDS011;60444;43.534;-5.674;2023-03-04T05:15:53;19.73;;;11.00;;
72437;SDS011;60444;43.534;-5.674;2023-03-04T05:18:20;20.98;;;9.98;;
72437;SDS011;60444;43.534;-5.674;2023-03-04T05:20:57;14.60;;;7.23;;
72437;SDS011;60444;43.534;-5.674;2023-03-04T05:23:25;23.67;;;11.90;;
72437;SDS011;60444;43.534;-5.674;2023-03-04T05:25:51;17.63;;;8.88;;
72437;SDS011;60444;43.534;-5.674;2023-03-04T05:28:17;18.80;;;9.83;;
72437;SDS011;60444;43.534;-5.674;2023-03-04T05:30:44;20.52;;;10.07;;
72437;SDS011;60444;43.534;-5.674;2023-03-04T05:33:10;21.83;;;11.32;;
72437;SDS011;60444;43.534;-5.674;2023-03-04T05:35:38;17.02;;;9.65;;
72437;SDS011;60444;43.534;-5.674;2023-03-04T05:38:06;24.15;;;12.93;;
72437;SDS011;60444;43.534;-5.674;2023-03-04T05:40:34;27.73;;;14.77;;
72437;SDS011;60444;43.534;-5.674;2023-03-04T05:43:00;23.15;;;12.50;;
72437;SDS011;60444;43.534;-5.674;2023-03-04T05:45:26;20.58;;;11.63;;
72437;SDS011;60444;43.534;-5.674;2023-03-04T05:47:52;19.13;;;10.50;;
72437;SDS011;60444;43.534;-5.674;2023-03-04T05:50:18;23.50;;;12.43;;
72437;SDS011;60444;43.534;-5.674;2023-03-04T05:52:45;23.42;;;12.75;;
72437;SDS011;60444;43.534;-5.674;2023-03-04T05:55:11;25.70;;;13.02;;
72437;SDS011;60444;43.534;-5.674;2023-03-04T05:57:37;21.67;;;11.40;;
72437;SDS011;60444;43.534;-5.674;2023-03-04T06:00:03;22.10;;;11.93;;
72437;SDS011;60444;43.534;-5.674;2023-03-04T06:02:30;23.75;;;10.57;;
72437;SDS011;60444;43.534;-5.674;2023-03-04T06:04:55;18.13;;;10.00;;
72437;SDS011;60444;43.534;-5.674;2023-03-04T06:07:21;20.67;;;10.87;;
72437;SDS011;60444;43.534;-5.674;2023-03-04T06:09:46;20.77;;;10.87;;
72437;SDS011;60444;43.534;-5.674;2023-03-04T06:12:12;18.30;;;8.40;;
72437;SDS011;60444;43.534;-5.674;2023-03-04T06:14:37;20.35;;;9.85;;
72437;SDS011;60444;43.534;-5.674;2023-03-04T06:17:03;24.10;;;12.77;;
72437;SDS011;60444;43.534;-5.674;2023-03-04T06:19:28;18.93;;;9.63;;
72437;SDS011;60444;43.534;-5.674;2023-03-04T06:21:54;23.77;;;11.43;;
72437;SDS011;60444;43.534;-5.674;2023-03-04T06:24:20;19.87;;;10.37;;
72437;SDS011;60444;43.534;-5.674;2023-03-04T06:26:46;17.83;;;9.57;;
72437;SDS011;60444;43.534;-5.674;2023-03-04T06:29:11;20.63;;;11.00;;
72437;SDS011;60444;43.534;-5.674;2023-03-04T06:31:37;20.80;;;10.40;;
72437;SDS011;60444;43.534;-5.674;2023-03-04T06:34:03;16.60;;;9.00;;
72437;SDS011;60444;43.534;-5.674;2023-03-04T06:36:29;18.05;;;9.32;;
72437;SDS011;60444;43.534;-5.674;2023-03-04T06:38:54;22.30;;;10.73;;
72437;SDS011;60444;43.534;-5.674;2023-03-04T06:41:20;14.98;;;7.78;;
72437;SDS011;60444;43.534;-5.674;2023-03-04T06:43:46;20.87;;;10.67;;
72437;SDS011;60444;43.534;-5.674;2023-03-04T06:46:11;19.73;;;10.03;;
72437;SDS011;60444;43.534;-5.674;2023-03-04T06:48:37;18.83;;;10.33;;
72437;SDS011;60444;43.534;-5.674;2023-03-04T06:51:06;23.52;;;11.88;;
72437;SDS011;60444;43.534;-5.674;2023-03-04T06:53:33;16.48;;;9.57;;
72437;SDS011;60444;43.534;-5.674;2023-03-04T06:56:01;16.90;;;9.27;;
72437;SDS011;60444;43.534;-5.674;2023-03-04T06:58:26;19.55;;;9.35;;
72437;SDS011;60444;43.534;-5.674;2023-03-04T07:00:52;22.03;;;11.20;;
72437;SDS011;60444;43.534;-5.674;2023-03-04T07:03:17;19.77;;;11.53;;
72437;SDS011;60444;43.534;-5.674;2023-03-04T07:05:43;24.95;;;11.82;;
72437;SDS011;60444;43.534;-5.674;2023-03-04T07:08:08;23.70;;;11.73;;
72437;SDS011;60444;43.534;-5.674;2023-03-04T07:10:34;17.57;;;9.73;;
72437;SDS011;60444;43.534;-5.674;2023-03-04T07:13:00;21.40;;;10.97;;
72437;SDS011;60444;43.534;-5.674;2023-03-04T07:15:25;21.63;;;11.90;;
72437;SDS011;60444;43.534;-5.674;2023-03-04T07:17:51;19.38;;;9.52;;
72437;SDS011;60444;43.534;-5.674;2023-03-04T07:20:17;20.90;;;10.70;;
72437;SDS011;60444;43.534;-5.674;2023-03-04T07:22:42;25.63;;;12.50;;
72437;SDS011;60444;43.534;-5.674;2023-03-04T07:25:08;23.65;;;11.55;;
72437;SDS011;60444;43.534;-5.674;2023-03-04T07:27:36;18.95;;;10.07;;
72437;SDS011;60444;43.534;-5.674;2023-03-04T07:30:05;21.77;;;10.67;;
72437;SDS011;60444;43.534;-5.674;2023-03-04T07:32:32;24.80;;;11.30;;
72437;SDS011;60444;43.534;-5.674;2023-03-04T07:35:01;24.48;;;11.63;;
72437;SDS011;60444;43.534;-5.674;2023-03-04T07:37:28;19.30;;;9.55;;
72437;SDS011;60444;43.534;-5.674;2023-03-04T07:39:53;20.27;;;10.73;;
72437;SDS011;60444;43.534;-5.674;2023-03-04T07:42:18;20.40;;;11.63;;
72437;SDS011;60444;43.534;-5.674;2023-03-04T07:44:44;17.25;;;9.13;;
72437;SDS011;60444;43.534;-5.674;2023-03-04T07:47:09;21.53;;;10.57;;
72437;SDS011;60444;43.534;-5.674;2023-03-04T07:49:35;24.97;;;12.57;;
72437;SDS011;60444;43.534;-5.674;2023-03-04T07:52:04;18.23;;;10.30;;
72437;SDS011;60444;43.534;-5.674;2023-03-04T07:54:30;19.02;;;9.90;;
72437;SDS011;60444;43.534;-5.674;2023-03-04T07:56:56;19.15;;;11.00;;
72437;SDS011;60444;43.534;-5.674;2023-03-04T07:59:21;22.47;;;11.97;;
72437;SDS011;60444;43.534;-5.674;2023-03-04T08:01:47;22.13;;;11.03;;
72437;SDS011;60444;43.534;-5.674;2023-03-04T08:04:12;20.77;;;10.27;;
72437;SDS011;60444;43.534;-5.674;2023-03-04T08:06:39;20.67;;;10.70;;
72437;SDS011;60444;43.534;-5.674;2023-03-04T08:09:06;19.45;;;9.77;;
72437;SDS011;60444;43.534;-5.674;2023-03-04T08:11:33;17.17;;;9.18;;
72437;SDS011;60444;43.534;-5.674;2023-03-04T08:14:00;19.93;;;9.43;;
72437;SDS011;60444;43.534;-5.674;2023-03-04T08:16:29;16.98;;;8.32;;
72437;SDS011;60444;43.534;-5.674;2023-03-04T08:18:56;16.23;;;8.70;;
72437;SDS011;60444;43.534;-5.674;2023-03-04T08:21:23;16.77;;;9.20;;
72437;SDS011;60444;43.534;-5.674;2023-03-04T08:23:50;16.85;;;8.85;;
72437;SDS011;60444;43.534;-5.674;2023-03-04T08:26:18;19.50;;;11.18;;
72437;SDS011;60444;43.534;-5.674;2023-03-04T08:28:43;16.02;;;9.32;;
72437;SDS011;60444;43.534;-5.674;2023-03-04T08:31:11;19.80;;;10.50;;
72437;SDS011;60444;43.534;-5.674;2023-03-04T08:33:37;13.63;;;7.60;;
72437;SDS011;60444;43.534;-5.674;2023-03-04T08:36:03;15.63;;;8.40;;
72437;SDS011;60444;43.534;-5.674;2023-03-04T08:38:29;15.83;;;7.77;;
72437;SDS011;60444;43.534;-5.674;2023-03-04T08:40:56;15.13;;;8.75;;
72437;SDS011;60444;43.534;-5.674;2023-03-04T08:43:23;16.70;;;8.52;;
72437;SDS011;60444;43.534;-5.674;2023-03-04T08:45:50;23.70;;;10.57;;
72437;SDS011;60444;43.534;-5.674;2023-03-04T08:48:16;14.37;;;7.43;;
72437;SDS011;60444;43.534;-5.674;2023-03-04T08:50:43;15.30;;;8.02;;
72437;SDS011;60444;43.534;-5.674;2023-03-04T08:53:09;15.35;;;8.70;;
72437;SDS011;60444;43.534;-5.674;2023-03-04T08:55:36;11.73;;;6.32;;
72437;SDS011;60444;43.534;-5.674;2023-03-04T08:58:03;14.50;;;7.57;;
72437;SDS011;60444;43.534;-5.674;2023-03-04T09:00:29;13.37;;;6.83;;
72437;SDS011;60444;43.534;-5.674;2023-03-04T09:02:55;14.52;;;7.18;;
72437;SDS011;60444;43.534;-5.674;2023-03-04T09:05:20;18.33;;;8.40;;
72437;SDS011;60444;43.534;-5.674;2023-03-04T09:07:46;16.70;;;8.10;;
72437;SDS011;60444;43.534;-5.674;2023-03-04T09:10:11;17.17;;;8.20;;
72437;SDS011;60444;43.534;-5.674;2023-03-04T09:12:37;12.75;;;6.68;;
72437;SDS011;60444;43.534;-5.674;2023-03-04T09:15:03;13.57;;;7.10;;
72437;SDS011;60444;43.534;-5.674;2023-03-04T09:17:31;13.73;;;7.27;;
72437;SDS011;60444;43.534;-5.674;2023-03-04T09:20:00;15.10;;;6.88;;
72437;SDS011;60444;43.534;-5.674;2023-03-04T09:22:25;14.47;;;7.90;;
72437;SDS011;60444;43.534;-5.674;2023-03-04T09:24:51;13.48;;;7.30;;
72437;SDS011;60444;43.534;-5.674;2023-03-04T09:27:16;12.30;;;7.00;;
72437;SDS011;60444;43.534;-5.674;2023-03-04T09:29:42;18.17;;;8.30;;
72437;SDS011;60444;43.534;-5.674;2023-03-04T09:32:08;15.70;;;6.45;;
72437;SDS011;60444;43.534;-5.674;2023-03-04T09:34:34;12.87;;;6.70;;
72437;SDS011;60444;43.534;-5.674;2023-03-04T09:36:59;14.65;;;7.88;;
72437;SDS011;60444;43.534;-5.674;2023-03-04T09:39:25;10.67;;;5.40;;
72437;SDS011;60444;43.534;-5.674;2023-03-04T09:41:51;13.80;;;7.47;;
72437;SDS011;60444;43.534;-5.674;2023-03-04T09:44:32;12.05;;;5.30;;
72437;SDS011;60444;43.534;-5.674;2023-03-04T09:47:10;12.60;;;6.78;;
72437;SDS011;60444;43.534;-5.674;2023-03-04T09:49:40;10.50;;;3.70;;
72437;SDS011;60444;43.534;-5.674;2023-03-04T10:00:14;13.88;;;6.15;;
72437;SDS011;60444;43.534;-5.674;2023-03-04T10:05:28;15.87;;;8.60;;
72437;SDS011;60444;43.534;-5.674;2023-03-04T10:08:02;14.75;;;7.63;;
72437;SDS011;60444;43.534;-5.674;2023-03-04T10:10:50;15.48;;;7.55;;
72437;SDS011;60444;43.534;-5.674;2023-03-04T10:13:21;17.05;;;7.93;;
72437;SDS011;60444;43.534;-5.674;2023-03-04T10:15:56;13.75;;;5.57;;
72437;SDS011;60444;43.534;-5.674;2023-03-04T10:18:35;13.23;;;6.10;;
72437;SDS011;60444;43.534;-5.674;2023-03-04T10:23:33;14.02;;;6.97;;
72437;SDS011;60444;43.534;-5.674;2023-03-04T10:26:00;14.05;;;7.65;;
72437;SDS011;60444;43.534;-5.674;2023-03-04T10:28:40;11.20;;;6.75;;
72437;SDS011;60444;43.534;-5.674;2023-03-04T10:33:37;18.55;;;7.70;;
72437;SDS011;60444;43.534;-5.674;2023-03-04T10:36:26;15.98;;;8.18;;
72437;SDS011;60444;43.534;-5.674;2023-03-04T10:39:11;18.33;;;8.35;;
72437;SDS011;60444;43.534;-5.674;2023-03-04T10:41:42;16.42;;;8.70;;
72437;SDS011;60444;43.534;-5.674;2023-03-04T10:44:16;15.70;;;8.30;;
72437;SDS011;60444;43.534;-5.674;2023-03-04T10:46:43;16.50;;;7.25;;
72437;SDS011;60444;43.534;-5.674;2023-03-04T10:49:11;19.08;;;8.15;;
72437;SDS011;60444;43.534;-5.674;2023-03-04T10:51:43;18.52;;;8.13;;
72437;SDS011;60444;43.534;-5.674;2023-03-04T10:54:21;16.48;;;8.10;;
72437;SDS011;60444;43.534;-5.674;2023-03-04T10:56:52;14.73;;;8.70;;
72437;SDS011;60444;43.534;-5.674;2023-03-04T11:00:00;17.05;;;8.32;;
72437;SDS011;60444;43.534;-5.674;2023-03-04T11:02:32;15.75;;;8.43;;
72437;SDS011;60444;43.534;-5.674;2023-03-04T11:05:16;17.83;;;9.00;;
72437;SDS011;60444;43.534;-5.674;2023-03-04T11:07:45;17.63;;;8.73;;
72437;SDS011;60444;43.534;-5.674;2023-03-04T11:12:59;17.65;;;9.35;;
72437;SDS011;60444;43.534;-5.674;2023-03-04T11:15:50;19.95;;;9.07;;
72437;SDS011;60444;43.534;-5.674;2023-03-04T11:21:05;21.42;;;9.13;;
72437;SDS011;60444;43.534;-5.674;2023-03-04T11:26:23;16.58;;;8.40;;
72437;SDS011;60444;43.534;-5.674;2023-03-04T11:31:27;18.25;;;8.25;;
72437;SDS011;60444;43.534;-5.674;2023-03-04T11:34:00;21.40;;;9.35;;
72437;SDS011;60444;43.534;-5.674;2023-03-04T11:36:50;16.70;;;8.63;;
72437;SDS011;60444;43.534;-5.674;2023-03-04T11:39:37;18.30;;;9.45;;
72437;SDS011;60444;43.534;-5.674;2023-03-04T11:45:12;21.50;;;9.45;;
72437;SDS011;60444;43.534;-5.674;2023-03-04T11:47:46;21.20;;;8.93;;
72437;SDS011;60444;43.534;-5.674;2023-03-04T11:55:36;21.20;;;9.73;;
72437;SDS011;60444;43.534;-5.674;2023-03-04T12:01:35;16.48;;;8.32;;
72437;SDS011;60444;43.534;-5.674;2023-03-04T12:07:06;16.52;;;8.05;;
72437;SDS011;60444;43.534;-5.674;2023-03-04T12:15:21;17.73;;;8.30;;
72437;SDS011;60444;43.534;-5.674;2023-03-04T12:31:44;16.07;;;8.10;;
72437;SDS011;60444;43.534;-5.674;2023-03-04T12:34:22;18.85;;;7.55;;
72437;SDS011;60444;43.534;-5.674;2023-03-04T12:40:14;14.00;;;7.32;;
72437;SDS011;60444;43.534;-5.674;2023-03-04T12:46:06;17.20;;;7.23;;
72437;SDS011;60444;43.534;-5.674;2023-03-04T12:54:33;14.57;;;6.85;;
72437;SDS011;60444;43.534;-5.674;2023-03-04T12:57:31;16.70;;;7.00;;
72437;SDS011;60444;43.534;-5.674;2023-03-04T13:09:02;15.02;;;6.43;;
72437;SDS011;60444;43.534;-5.674;2023-03-04T13:11:32;14.52;;;6.95;;
72437;SDS011;60444;43.534;-5.674;2023-03-04T13:14:24;15.80;;;6.53;;
72437;SDS011;60444;43.534;-5.674;2023-03-04T13:16:55;19.52;;;6.40;;
72437;SDS011;60444;43.534;-5.674;2023-03-04T13:19:41;11.95;;;6.25;;
72437;SDS011;60444;43.534;-5.674;2023-03-04T13:43:39;14.35;;;7.10;;
72437;SDS011;60444;43.534;-5.674;2023-03-04T13:51:23;17.52;;;8.00;;
72437;SDS011;60444;43.534;-5.674;2023-03-04T13:54:05;18.70;;;7.87;;
72437;SDS011;60444;43.534;-5.674;2023-03-04T13:56:41;15.85;;;7.80;;
72437;SDS011;60444;43.534;-5.674;2023-03-04T14:02:09;16.80;;;7.70;;
72437;SDS011;60444;43.534;-5.674;2023-03-04T14:04:36;19.40;;;8.63;;
72437;SDS011;60444;43.534;-5.674;2023-03-04T14:07:20;15.13;;;7.13;;
72437;SDS011;60444;43.534;-5.674;2023-03-04T14:17:36;16.25;;;7.70;;
72437;SDS011;60444;43.534;-5.674;2023-03-04T14:20:02;17.20;;;8.00;;
72437;SDS011;60444;43.534;-5.674;2023-03-04T14:22:37;17.02;;;7.00;;
72437;SDS011;60444;43.534;-5.674;2023-03-04T14:25:05;17.73;;;7.88;;
72437;SDS011;60444;43.534;-5.674;2023-03-04T14:27:33;16.97;;;7.30;;
72437;SDS011;60444;43.534;-5.674;2023-03-04T14:30:04;13.55;;;6.03;;
72437;SDS011;60444;43.534;-5.674;2023-03-04T14:32:42;14.00;;;7.50;;
72437;SDS011;60444;43.534;-5.674;2023-03-04T14:35:18;13.97;;;6.67;;
72437;SDS011;60444;43.534;-5.674;2023-03-04T14:40:40;14.75;;;6.65;;
72437;SDS011;60444;43.534;-5.674;2023-03-04T14:43:17;13.57;;;6.93;;
72437;SDS011;60444;43.534;-5.674;2023-03-04T14:45:50;15.73;;;7.32;;
72437;SDS011;60444;43.534;-5.674;2023-03-04T14:48:22;15.93;;;7.30;;
72437;SDS011;60444;43.534;-5.674;2023-03-04T14:50:52;15.48;;;6.95;;
72437;SDS011;60444;43.534;-5.674;2023-03-04T14:53:19;18.17;;;6.88;;
72437;SDS011;60444;43.534;-5.674;2023-03-04T14:55:53;14.38;;;7.05;;
72437;SDS011;60444;43.534;-5.674;2023-03-04T14:58:30;16.23;;;6.65;;
72437;SDS011;60444;43.534;-5.674;2023-03-04T15:01:04;17.50;;;7.23;;
72437;SDS011;60444;43.534;-5.674;2023-03-04T15:03:56;14.95;;;7.22;;
72437;SDS011;60444;43.534;-5.674;2023-03-04T15:06:26;17.50;;;6.57;;
72437;SDS011;60444;43.534;-5.674;2023-03-04T15:09:06;18.27;;;7.70;;
72437;SDS011;60444;43.534;-5.674;2023-03-04T15:17:21;17.45;;;6.95;;
72437;SDS011;60444;43.534;-5.674;2023-03-04T15:25:16;15.50;;;7.07;;
72437;SDS011;60444;43.534;-5.674;2023-03-04T15:27:43;17.45;;;7.60;;
72437;SDS011;60444;43.534;-5.674;2023-03-04T15:30:17;19.25;;;7.88;;
72437;SDS011;60444;43.534;-5.674;2023-03-04T15:32:45;16.30;;;7.07;;
72437;SDS011;60444;43.534;-5.674;2023-03-04T15:35:13;15.35;;;7.60;;
72437;SDS011;60444;43.534;-5.674;2023-03-04T15:37:40;15.00;;;7.27;;
72437;SDS011;60444;43.534;-5.674;2023-03-04T15:40:14;16.13;;;6.95;;
72437;SDS011;60444;43.534;-5.674;2023-03-04T15:42:51;19.02;;;7.32;;
72437;SDS011;60444;43.534;-5.674;2023-03-04T15:45:19;17.05;;;6.72;;
72437;SDS011;60444;43.534;-5.674;2023-03-04T15:47:47;15.73;;;6.88;;
72437;SDS011;60444;43.534;-5.674;2023-03-04T15:50:13;13.90;;;6.73;;
72437;SDS011;60444;43.534;-5.674;2023-03-04T15:52:38;12.83;;;6.33;;
72437;SDS011;60444;43.534;-5.674;2023-03-04T15:55:05;12.02;;;5.72;;
72437;SDS011;60444;43.534;-5.674;2023-03-04T15:57:31;13.43;;;6.55;;
72437;SDS011;60444;43.534;-5.674;2023-03-04T15:59:57;14.30;;;5.97;;
72437;SDS011;60444;43.534;-5.674;2023-03-04T16:02:23;12.45;;;5.68;;
72437;SDS011;60444;43.534;-5.674;2023-03-04T16:04:51;15.88;;;6.95;;
72437;SDS011;60444;43.534;-5.674;2023-03-04T16:07:24;12.57;;;6.10;;
72437;SDS011;60444;43.534;-5.674;2023-03-04T16:09:54;14.35;;;6.25;;
72437;SDS011;60444;43.534;-5.674;2023-03-04T16:12:26;15.40;;;6.82;;
72437;SDS011;60444;43.534;-5.674;2023-03-04T16:14:52;15.15;;;6.38;;
72437;SDS011;60444;43.534;-5.674;2023-03-04T16:17:18;12.80;;;6.40;;
72437;SDS011;60444;43.534;-5.674;2023-03-04T16:19:44;15.73;;;6.50;;
72437;SDS011;60444;43.534;-5.674;2023-03-04T16:22:13;12.07;;;6.17;;
72437;SDS011;60444;43.534;-5.674;2023-03-04T16:24:44;16.95;;;6.20;;
72437;SDS011;60444;43.534;-5.674;2023-03-04T16:27:10;16.08;;;6.88;;
72437;SDS011;60444;43.534;-5.674;2023-03-04T16:29:38;17.13;;;6.00;;
72437;SDS011;60444;43.534;-5.674;2023-03-04T16:32:04;12.02;;;6.25;;
72437;SDS011;60444;43.534;-5.674;2023-03-04T16:34:29;12.97;;;6.07;;
72437;SDS011;60444;43.534;-5.674;2023-03-04T16:36:56;13.18;;;6.70;;
72437;SDS011;60444;43.534;-5.674;2023-03-04T16:39:22;15.73;;;6.85;;
72437;SDS011;60444;43.534;-5.674;2023-03-04T16:41:50;14.65;;;6.35;;
72437;SDS011;60444;43.534;-5.674;2023-03-04T16:44:16;14.45;;;7.35;;
72437;SDS011;60444;43.534;-5.674;2023-03-04T16:46:41;14.23;;;6.20;;